Time;durP1;ratioP1;P1;durP2;ratioP2;P2;SDS_P1;SDS_P2;PMS_P1;PMS_P2;Temp;Humidity;BMP_temperature;BMP_pressure;BME280_temperature;BME280_humidity;BME280_pressure;Samples;Min_cycle;Max_cycle;Signal;HPM_P1;HPM_P2
2023/10/03 00:01:22;;;;;;;26.07;17.93;;;19.10;99.90;;;;;;4989931;28;20435;-67
2023/10/03 00:03:50;;;;;;;28.07;17.40;;;19.20;99.90;;;;;;4987287;28;20435;-68
2023/10/03 00:06:15;;;;;;;25.13;16.37;;;19.20;99.90;;;;;;4980166;28;20186;-68
2023/10/03 00:08:44;;;;;;;29.87;17.50;;;19.20;99.90;;;;;;4987673;28;20430;-67
2023/10/03 00:11:20;;;;;;;27.17;17.73;;;19.20;99.90;;;;;;4976703;28;20194;-68
2023/10/03 00:13:46;;;;;;;25.80;17.43;;;19.10;99.90;;;;;;4976794;28;20809;-68
2023/10/03 00:16:12;;;;;;;25.17;16.77;;;19.20;99.90;;;;;;4986113;28;20466;-68
2023/10/03 00:18:37;;;;;;;26.10;18.87;;;19.10;99.90;;;;;;4987244;28;20502;-67
2023/10/03 00:21:03;;;;;;;27.03;18.37;;;19.20;99.90;;;;;;4979346;28;20173;-67
2023/10/03 00:23:29;;;;;;;28.53;17.30;;;19.20;99.90;;;;;;4984597;28;20226;-68
2023/10/03 00:25:55;;;;;;;28.20;15.90;;;19.20;99.90;;;;;;4984425;28;20172;-68
2023/10/03 00:28:21;;;;;;;25.40;17.83;;;19.10;99.90;;;;;;4995065;28;20510;-67
2023/10/03 00:30:48;;;;;;;27.57;18.10;;;19.10;99.90;;;;;;4978993;28;20514;-67
2023/10/03 00:33:15;;;;;;;25.20;15.97;;;19.10;99.90;;;;;;4971882;28;20180;-68
2023/10/03 00:35:40;;;;;;;29.90;17.90;;;19.10;99.90;;;;;;4968933;28;20535;-67
2023/10/03 00:38:24;;;;;;;31.00;18.13;;;19.10;99.90;;;;;;4983440;28;21080;-68
2023/10/03 00:40:53;;;;;;;28.10;17.77;;;19.10;99.90;;;;;;4956371;28;20205;-67
2023/10/03 00:43:19;;;;;;;28.80;17.90;;;19.10;99.90;;;;;;4955742;28;20419;-68
2023/10/03 00:45:45;;;;;;;23.90;17.57;;;19.00;99.90;;;;;;4959741;28;20436;-67
2023/10/03 00:48:12;;;;;;;25.60;18.23;;;19.00;99.90;;;;;;4990825;28;20950;-68
2023/10/03 00:50:38;;;;;;;32.03;19.53;;;18.90;99.90;;;;;;4975392;28;20423;-67
2023/10/03 00:53:10;;;;;;;26.40;17.47;;;18.90;99.90;;;;;;4975189;28;20452;-68
2023/10/03 00:55:42;;;;;;;27.10;18.30;;;18.80;99.90;;;;;;4981027;28;21067;-68
2023/10/03 00:58:18;;;;;;;26.60;17.87;;;18.80;99.90;;;;;;4980229;28;20470;-67
2023/10/03 01:00:47;;;;;;;31.47;18.57;;;18.80;99.90;;;;;;4967435;28;20488;-68
2023/10/03 01:03:30;;;;;;;25.57;20.20;;;18.70;99.90;;;;;;4985524;28;20434;-67
2023/10/03 01:05:58;;;;;;;29.30;18.70;;;18.70;99.90;;;;;;4980234;28;20435;-68
2023/10/03 01:08:24;;;;;;;29.77;20.00;;;18.70;99.90;;;;;;4971732;28;20838;-68
2023/10/03 01:10:55;;;;;;;25.80;18.97;;;18.60;99.90;;;;;;4976857;28;20432;-68
2023/10/03 01:13:20;;;;;;;30.27;18.50;;;18.60;99.90;;;;;;4967540;28;20443;-68
2023/10/03 01:15:51;;;;;;;29.03;19.03;;;18.60;99.90;;;;;;4970106;28;20446;-68
2023/10/03 01:18:22;;;;;;;27.63;17.70;;;18.50;99.90;;;;;;4987844;28;20556;-68
2023/10/03 01:21:04;;;;;;;23.03;17.20;;;18.40;99.90;;;;;;4980573;28;20573;-68
2023/10/03 01:23:34;;;;;;;25.30;17.23;;;18.40;99.90;;;;;;4986535;28;20437;-67
2023/10/03 01:25:59;;;;;;;27.23;17.13;;;18.30;99.90;;;;;;4985795;28;20430;-68
2023/10/03 01:28:25;;;;;;;29.93;19.20;;;18.30;99.90;;;;;;4982386;28;20428;-67
2023/10/03 01:30:51;;;;;;;30.13;19.93;;;18.20;99.90;;;;;;4994138;28;20197;-68
2023/10/03 01:33:17;;;;;;;33.37;19.13;;;18.20;99.90;;;;;;4994091;28;20176;-67
2023/10/03 01:35:42;;;;;;;32.30;19.23;;;18.10;99.90;;;;;;4978643;28;20187;-68
2023/10/03 01:38:08;;;;;;;27.23;17.93;;;18.10;99.90;;;;;;4988767;28;20258;-68
2023/10/03 01:40:34;;;;;;;31.67;19.13;;;18.00;99.90;;;;;;4974642;28;20222;-67
2023/10/03 01:43:00;;;;;;;27.40;17.60;;;18.00;99.90;;;;;;4974291;28;20540;-67
2023/10/03 01:45:28;;;;;;;27.03;18.17;;;18.00;99.90;;;;;;4973811;28;20460;-68
2023/10/03 01:47:58;;;;;;;26.07;17.70;;;18.00;99.90;;;;;;4977868;28;20220;-68
2023/10/03 01:50:29;;;;;;;25.03;16.80;;;17.90;99.90;;;;;;4978895;28;20439;-68
2023/10/03 01:52:54;;;;;;;30.67;18.80;;;17.90;99.90;;;;;;4988659;28;20439;-67
2023/10/03 01:55:20;;;;;;;27.67;19.43;;;17.80;99.90;;;;;;4982070;28;20481;-68
2023/10/03 01:57:47;;;;;;;25.87;17.97;;;17.80;99.90;;;;;;4979807;28;20216;-67
2023/10/03 02:02:50;;;;;;;26.23;17.87;;;17.90;99.90;;;;;;4975127;28;20435;-68
2023/10/03 02:05:19;;;;;;;28.93;18.10;;;17.90;99.90;;;;;;4990244;28;20981;-67
2023/10/03 02:07:48;;;;;;;26.80;17.77;;;17.90;99.90;;;;;;4982132;28;20955;-68
2023/10/03 02:10:14;;;;;;;26.70;19.03;;;17.90;99.90;;;;;;4993295;28;20928;-68
2023/10/03 02:12:49;;;;;;;26.83;19.93;;;17.80;99.90;;;;;;4993090;28;20449;-68
2023/10/03 02:15:21;;;;;;;26.70;18.77;;;17.80;99.90;;;;;;4985308;28;20438;-68
2023/10/03 02:17:49;;;;;;;31.47;18.03;;;17.70;99.90;;;;;;4971380;28;20875;-67
2023/10/03 02:20:16;;;;;;;27.53;17.83;;;17.70;99.90;;;;;;4984837;28;20431;-67
2023/10/03 02:22:41;;;;;;;24.83;17.70;;;17.60;99.90;;;;;;4973590;28;20765;-67
2023/10/03 02:25:09;;;;;;;24.93;18.00;;;17.60;99.90;;;;;;4978584;28;20446;-67
2023/10/03 02:27:34;;;;;;;30.30;18.13;;;17.50;99.90;;;;;;4978737;28;20237;-67
2023/10/03 02:30:05;;;;;;;26.77;17.70;;;17.50;99.90;;;;;;4979624;28;20443;-68
2023/10/03 02:32:30;;;;;;;26.43;17.43;;;17.40;99.90;;;;;;4965385;28;20192;-67
2023/10/03 02:34:56;;;;;;;27.00;18.07;;;17.40;99.90;;;;;;4966075;28;20456;-68
2023/10/03 02:37:22;;;;;;;28.87;18.47;;;17.30;99.90;;;;;;4969662;28;20290;-68
2023/10/03 02:39:47;;;;;;;31.63;19.03;;;17.30;99.90;;;;;;4992910;28;20302;-68
2023/10/03 02:42:13;;;;;;;26.80;18.13;;;17.20;99.90;;;;;;4982992;28;20253;-68
2023/10/03 02:44:38;;;;;;;35.90;21.70;;;17.20;99.90;;;;;;4961098;28;20683;-68
2023/10/03 02:47:04;;;;;;;26.17;18.93;;;17.10;99.90;;;;;;4970239;28;20193;-68
2023/10/03 02:49:30;;;;;;;27.60;18.33;;;17.10;99.90;;;;;;4982199;28;20449;-68
2023/10/03 02:51:59;;;;;;;25.07;17.43;;;17.10;99.90;;;;;;4984985;28;20422;-68
2023/10/03 02:54:25;;;;;;;28.40;19.93;;;17.00;99.90;;;;;;4980750;28;20902;-68
2023/10/03 02:56:51;;;;;;;27.47;17.30;;;17.00;99.90;;;;;;4979366;28;20549;-68
2023/10/03 02:59:17;;;;;;;26.67;18.00;;;17.00;99.90;;;;;;4981213;28;20210;-67
2023/10/03 03:01:44;;;;;;;30.10;17.80;;;17.00;99.90;;;;;;4977717;28;20643;-67
2023/10/03 03:04:12;;;;;;;24.53;16.10;;;17.00;99.90;;;;;;4972445;28;21039;-68
2023/10/03 03:06:39;;;;;;;26.23;17.30;;;16.90;99.90;;;;;;4983746;28;20501;-67
2023/10/03 03:09:07;;;;;;;23.97;16.57;;;16.90;99.90;;;;;;4982939;28;21002;-68
2023/10/03 03:11:33;;;;;;;28.17;18.03;;;16.90;99.90;;;;;;4981292;28;20440;-67
2023/10/03 03:13:58;;;;;;;26.57;17.50;;;16.90;99.90;;;;;;4984247;28;20485;-67
2023/10/03 03:16:24;;;;;;;24.37;16.13;;;16.90;99.90;;;;;;4973692;28;20972;-67
2023/10/03 03:18:51;;;;;;;28.30;16.57;;;16.80;99.90;;;;;;4979493;28;20226;-67
2023/10/03 03:21:20;;;;;;;27.20;16.77;;;16.80;99.90;;;;;;4974935;28;21013;-68
2023/10/03 03:24:00;;;;;;;28.00;16.87;;;16.80;99.90;;;;;;4979646;28;20869;-67
2023/10/03 03:26:36;;;;;;;25.40;15.43;;;16.80;99.90;;;;;;4976333;28;20498;-68
2023/10/03 03:29:05;;;;;;;22.37;15.00;;;16.80;99.90;;;;;;4980674;28;20442;-67
2023/10/03 03:31:34;;;;;;;24.50;16.30;;;16.70;99.90;;;;;;4992368;28;20760;-67
2023/10/03 03:34:02;;;;;;;22.57;14.90;;;16.80;99.90;;;;;;4991951;28;20442;-69
2023/10/03 03:36:30;;;;;;;19.20;14.73;;;16.80;99.90;;;;;;4984562;28;20472;-68
2023/10/03 03:38:58;;;;;;;25.13;16.83;;;16.80;99.90;;;;;;4977841;28;20430;-67
2023/10/03 03:41:24;;;;;;;21.67;15.20;;;16.80;99.90;;;;;;4982085;28;20438;-68
2023/10/03 03:43:50;;;;;;;22.83;15.60;;;16.80;99.90;;;;;;4983030;28;20553;-67
2023/10/03 03:46:18;;;;;;;20.53;14.67;;;16.80;99.90;;;;;;4974844;28;20526;-68
2023/10/03 03:48:44;;;;;;;22.77;14.13;;;16.80;99.90;;;;;;4976751;28;20168;-67
2023/10/03 03:51:12;;;;;;;17.00;12.63;;;16.80;99.90;;;;;;4980903;28;20841;-68
2023/10/03 03:53:43;;;;;;;20.67;15.30;;;16.90;99.90;;;;;;4966263;28;20448;-68
2023/10/03 03:56:12;;;;;;;16.50;12.40;;;17.00;99.90;;;;;;4987997;28;20506;-68
2023/10/03 03:58:40;;;;;;;19.70;14.83;;;17.10;99.90;;;;;;4972993;28;20840;-68
2023/10/03 04:01:19;;;;;;;17.20;12.27;;;17.10;99.90;;;;;;4977924;28;20439;-67
2023/10/03 04:03:51;;;;;;;17.97;12.60;;;17.30;99.90;;;;;;4968803;28;20967;-68
2023/10/03 04:06:20;;;;;;;19.53;11.93;;;17.50;99.90;;;;;;4984913;28;20983;-68
2023/10/03 04:08:46;;;;;;;17.23;12.40;;;17.50;99.90;;;;;;4988089;28;20431;-68
2023/10/03 04:11:15;;;;;;;18.47;12.30;;;17.70;99.90;;;;;;4984015;28;20835;-68
2023/10/03 04:13:49;;;;;;;17.30;11.60;;;17.80;99.90;;;;;;4976890;28;20455;-68
2023/10/03 04:16:20;;;;;;;13.50;10.47;;;17.90;99.90;;;;;;4982986;28;20445;-68
2023/10/03 04:18:49;;;;;;;13.90;11.17;;;18.10;99.90;;;;;;4975941;28;20465;-68
2023/10/03 04:21:15;;;;;;;15.80;10.47;;;18.30;99.90;;;;;;4981300;28;20487;-68
2023/10/03 04:23:42;;;;;;;17.13;10.83;;;18.40;99.90;;;;;;4974535;28;20452;-68
2023/10/03 04:26:08;;;;;;;14.50;9.53;;;18.60;99.90;;;;;;4956545;28;20169;-67
2023/10/03 04:28:33;;;;;;;14.10;10.80;;;18.70;99.90;;;;;;4968220;28;20809;-67
2023/10/03 04:30:59;;;;;;;12.60;9.60;;;18.70;99.90;;;;;;4982769;28;20440;-68
2023/10/03 04:33:25;;;;;;;16.07;10.37;;;18.80;99.90;;;;;;4981681;28;20180;-68
2023/10/03 04:35:51;;;;;;;13.60;10.33;;;18.90;99.90;;;;;;4974221;28;20211;-67
2023/10/03 04:38:17;;;;;;;15.07;10.43;;;18.90;99.90;;;;;;4980038;28;20219;-67
2023/10/03 04:40:43;;;;;;;13.80;10.07;;;19.00;99.90;;;;;;4986029;28;20433;-67
2023/10/03 04:43:14;;;;;;;12.37;9.97;;;19.10;99.90;;;;;;4978717;28;20873;-67
2023/10/03 04:45:41;;;;;;;15.70;10.53;;;19.10;99.90;;;;;;4977654;28;21104;-67
2023/10/03 04:48:07;;;;;;;14.63;11.20;;;19.10;99.90;;;;;;4979405;28;20442;-67
2023/10/03 04:50:36;;;;;;;13.30;10.63;;;19.10;99.90;;;;;;4986130;28;20804;-68
2023/10/03 04:53:02;;;;;;;14.80;10.77;;;19.10;99.90;;;;;;4986056;28;20951;-68
2023/10/03 04:55:28;;;;;;;13.90;9.67;;;19.00;99.90;;;;;;4981808;28;20558;-68
2023/10/03 04:57:55;;;;;;;18.40;10.87;;;19.10;99.90;;;;;;4965070;28;20547;-68
2023/10/03 05:00:22;;;;;;;16.57;11.50;;;19.10;99.90;;;;;;4980128;28;20231;-67
2023/10/03 05:02:52;;;;;;;12.80;9.70;;;19.10;99.90;;;;;;4986242;28;20427;-68
2023/10/03 05:05:21;;;;;;;14.07;10.17;;;19.10;99.90;;;;;;4982953;28;20450;-68
2023/10/03 05:07:48;;;;;;;14.50;9.73;;;19.10;99.90;;;;;;4966246;28;20929;-67
2023/10/03 05:10:17;;;;;;;13.47;10.20;;;19.10;99.90;;;;;;4976397;28;20503;-67
2023/10/03 05:12:45;;;;;;;12.97;10.50;;;19.10;99.90;;;;;;4987203;28;20489;-67
2023/10/03 05:15:11;;;;;;;12.10;9.53;;;19.10;99.90;;;;;;4987958;22;20509;-68
2023/10/03 05:17:38;;;;;;;13.23;9.70;;;19.10;99.90;;;;;;4950474;28;20499;-67
2023/10/03 05:20:05;;;;;;;12.93;10.70;;;19.00;99.90;;;;;;4955419;28;20439;-67
2023/10/03 05:22:33;;;;;;;13.13;9.60;;;19.00;99.90;;;;;;4962133;28;20427;-67
2023/10/03 05:25:00;;;;;;;12.60;10.40;;;18.90;99.90;;;;;;4974251;28;20467;-68
2023/10/03 05:27:29;;;;;;;13.43;9.57;;;18.90;99.90;;;;;;4985685;28;20457;-67
2023/10/03 05:30:05;;;;;;;12.90;9.83;;;18.90;99.90;;;;;;4973710;28;20494;-68
2023/10/03 05:32:34;;;;;;;12.53;9.83;;;18.90;99.90;;;;;;4983773;28;21046;-67
2023/10/03 05:35:00;;;;;;;12.17;9.63;;;18.90;99.90;;;;;;4994064;28;20461;-67
2023/10/03 05:37:26;;;;;;;12.40;9.60;;;18.90;99.90;;;;;;4990890;28;20462;-67
2023/10/03 05:39:51;;;;;;;12.33;8.73;;;19.00;99.90;;;;;;4967036;28;20628;-68
2023/10/03 05:42:17;;;;;;;10.17;9.13;;;19.00;99.90;;;;;;4984404;28;20190;-68
2023/10/03 05:44:44;;;;;;;13.37;10.40;;;19.10;99.90;;;;;;4973469;28;20200;-68
2023/10/03 05:47:10;;;;;;;11.60;9.47;;;19.10;99.90;;;;;;4984409;28;20242;-67
2023/10/03 05:49:35;;;;;;;12.40;9.60;;;19.20;99.90;;;;;;4992507;28;20427;-70
2023/10/03 05:52:01;;;;;;;13.80;8.80;;;19.20;99.90;;;;;;4971201;28;20180;-67
2023/10/03 05:54:27;;;;;;;13.60;9.10;;;19.20;99.90;;;;;;4973963;28;20209;-68
2023/10/03 05:56:53;;;;;;;13.93;10.13;;;19.20;99.90;;;;;;4982074;28;20196;-68
2023/10/03 05:59:20;;;;;;;30.50;11.27;;;19.30;99.90;;;;;;4972731;28;20443;-68
2023/10/03 06:01:46;;;;;;;11.57;9.70;;;19.50;99.90;;;;;;4976137;28;20500;-67
2023/10/03 06:04:12;;;;;;;12.60;9.80;;;19.40;99.90;;;;;;4983664;28;20874;-68
2023/10/03 06:06:37;;;;;;;12.70;9.50;;;19.40;99.90;;;;;;4981560;28;20482;-67
2023/10/03 06:09:03;;;;;;;14.30;10.23;;;19.40;99.90;;;;;;4979423;28;20529;-68
2023/10/03 06:11:35;;;;;;;11.57;9.10;;;19.50;99.90;;;;;;4975716;28;20189;-68
2023/10/03 06:14:00;;;;;;;10.13;8.20;;;19.60;99.90;;;;;;4962793;28;20299;-68
2023/10/03 06:16:28;;;;;;;12.40;8.80;;;19.70;99.90;;;;;;4968735;28;20538;-69
2023/10/03 06:18:54;;;;;;;9.77;8.70;;;19.90;99.90;;;;;;4987311;28;20172;-68
2023/10/03 06:21:20;;;;;;;11.23;8.60;;;20.10;99.90;;;;;;4971258;28;20440;-69
2023/10/03 06:23:46;;;;;;;14.00;8.30;;;20.20;99.90;;;;;;4974008;28;20546;-69
2023/10/03 06:26:17;;;;;;;11.03;8.50;;;20.30;99.90;;;;;;4984533;28;20435;-69
2023/10/03 06:28:43;;;;;;;10.60;7.40;;;20.40;99.90;;;;;;4985159;28;20423;-69
2023/10/03 06:31:10;;;;;;;10.00;6.70;;;20.60;99.90;;;;;;4986513;28;20473;-69
2023/10/03 06:33:37;;;;;;;12.07;8.43;;;20.60;99.90;;;;;;4980099;28;20442;-69
2023/10/03 06:36:06;;;;;;;9.60;8.27;;;20.70;99.90;;;;;;4972418;28;20459;-68
2023/10/03 06:38:32;;;;;;;8.77;7.97;;;20.90;99.90;;;;;;4959625;28;20470;-69
2023/10/03 06:40:57;;;;;;;10.40;7.60;;;21.20;99.90;;;;;;4970736;28;20927;-69
2023/10/03 06:43:23;;;;;;;11.30;8.20;;;21.40;99.90;;;;;;4982019;28;20181;-69
2023/10/03 06:45:48;;;;;;;11.40;9.87;;;21.50;99.90;;;;;;4984089;28;20665;-68
2023/10/03 06:48:14;;;;;;;10.37;7.93;;;21.60;99.90;;;;;;4992823;28;20194;-68
2023/10/03 06:50:42;;;;;;;8.60;7.53;;;21.90;99.90;;;;;;4987172;28;20176;-68
2023/10/03 06:53:09;;;;;;;9.30;7.17;;;22.10;99.90;;;;;;4973007;28;20863;-69
2023/10/03 06:55:35;;;;;;;10.10;7.07;;;22.30;99.90;;;;;;4973477;28;20459;-69
2023/10/03 06:58:01;;;;;;;10.70;7.63;;;22.50;99.90;;;;;;4983434;28;20470;-69
2023/10/03 07:00:28;;;;;;;11.27;7.60;;;22.80;99.90;;;;;;4975056;28;20454;-68
2023/10/03 07:02:54;;;;;;;9.97;7.97;;;23.10;99.90;;;;;;4980604;28;20921;-68
2023/10/03 07:05:20;;;;;;;8.40;7.60;;;23.20;98.80;;;;;;4981957;28;20490;-69
2023/10/03 07:07:45;;;;;;;10.40;8.20;;;23.40;98.00;;;;;;4968176;28;20244;-70
2023/10/03 07:10:11;;;;;;;11.40;6.83;;;23.50;96.90;;;;;;4971339;28;20191;-69
2023/10/03 07:12:38;;;;;;;9.80;7.20;;;23.80;96.60;;;;;;4976355;28;20240;-68
2023/10/03 07:15:11;;;;;;;10.03;7.57;;;23.90;95.80;;;;;;4984071;28;20206;-69
2023/10/03 07:17:37;;;;;;;11.00;7.33;;;24.10;94.90;;;;;;4981088;28;20466;-68
2023/10/03 07:20:09;;;;;;;9.30;7.40;;;24.30;94.60;;;;;;4977230;28;20890;-70
2023/10/03 07:22:35;;;;;;;8.53;6.23;;;24.40;93.40;;;;;;4974869;28;20176;-69
2023/10/03 07:25:04;;;;;;;9.47;6.77;;;24.60;92.90;;;;;;4969666;28;20547;-69
2023/10/03 07:27:30;;;;;;;10.13;9.13;;;24.70;92.30;;;;;;4974048;28;20217;-69
2023/10/03 07:29:56;;;;;;;9.57;7.77;;;24.70;92.90;;;;;;4972732;28;20491;-70
2023/10/03 07:32:21;;;;;;;9.33;7.70;;;24.70;93.50;;;;;;4956531;28;20729;-69
2023/10/03 07:34:47;;;;;;;10.93;9.80;;;24.70;93.20;;;;;;4967175;28;20203;-69
2023/10/03 07:37:16;;;;;;;10.60;8.73;;;24.70;93.30;;;;;;4965303;28;20247;-69
2023/10/03 07:39:42;;;;;;;11.83;8.87;;;24.70;93.10;;;;;;4964508;28;20175;-69
2023/10/03 07:42:09;;;;;;;11.23;9.17;;;24.90;93.30;;;;;;4968175;28;20945;-69
2023/10/03 07:44:36;;;;;;;10.03;7.60;;;25.00;92.00;;;;;;4961094;28;20835;-69
2023/10/03 07:47:03;;;;;;;10.80;8.10;;;25.00;91.70;;;;;;4960132;28;20459;-69
2023/10/03 07:49:31;;;;;;;8.70;7.90;;;25.20;91.30;;;;;;4986049;28;20440;-69
2023/10/03 07:51:59;;;;;;;11.93;9.33;;;25.50;90.10;;;;;;4982329;28;20526;-69
2023/10/03 07:54:26;;;;;;;10.10;8.90;;;25.80;89.40;;;;;;4974163;28;20459;-68
2023/10/03 07:56:52;;;;;;;10.90;9.00;;;26.10;87.80;;;;;;4978779;28;20474;-70
2023/10/03 07:59:17;;;;;;;10.93;7.87;;;26.20;86.80;;;;;;4979394;28;20446;-69
2023/10/03 08:01:44;;;;;;;8.37;7.57;;;26.20;84.60;;;;;;4968883;28;20176;-69
2023/10/03 08:04:12;;;;;;;8.53;7.57;;;26.60;83.00;;;;;;4978159;28;20191;-69
2023/10/03 08:06:39;;;;;;;8.70;7.83;;;26.50;81.30;;;;;;4958785;28;20541;-69
2023/10/03 08:09:06;;;;;;;8.60;6.70;;;26.60;80.80;;;;;;4965117;28;20447;-69
2023/10/03 08:11:32;;;;;;;8.63;7.30;;;27.00;78.00;;;;;;4980056;28;20473;-69
2023/10/03 08:14:17;;;;;;;9.03;7.57;;;27.10;76.50;;;;;;4961774;28;20464;-69
2023/10/03 08:16:44;;;;;;;7.10;6.20;;;27.40;75.40;;;;;;4971756;28;20467;-69
2023/10/03 08:19:21;;;;;;;7.10;6.40;;;27.90;73.80;;;;;;4968241;28;20471;-69
2023/10/03 08:21:48;;;;;;;7.67;6.90;;;28.30;70.60;;;;;;4962354;28;20534;-69
2023/10/03 08:24:18;;;;;;;7.37;6.73;;;28.60;69.30;;;;;;4962439;28;20854;-70
2023/10/03 08:26:46;;;;;;;9.47;7.03;;;28.80;67.60;;;;;;4971870;28;20436;-69
2023/10/03 08:29:21;;;;;;;7.50;6.80;;;29.00;67.20;;;;;;4977850;28;20446;-69
2023/10/03 08:31:49;;;;;;;6.73;6.03;;;29.20;64.90;;;;;;4971754;28;20447;-69
2023/10/03 08:34:16;;;;;;;7.00;6.20;;;28.90;63.70;;;;;;4976358;28;20458;-69
2023/10/03 08:36:41;;;;;;;8.97;7.20;;;29.30;64.80;;;;;;4981976;28;20510;-69
2023/10/03 08:39:13;;;;;;;6.83;6.23;;;29.40;63.70;;;;;;4970803;28;21034;-69
2023/10/03 08:41:45;;;;;;;11.47;6.47;;;29.30;63.00;;;;;;4974189;28;20187;-69
2023/10/03 08:44:12;;;;;;;8.70;6.63;;;29.60;62.70;;;;;;4968230;28;20466;-69
2023/10/03 08:46:48;;;;;;;6.97;6.27;;;29.30;62.20;;;;;;4979121;28;20792;-69
2023/10/03 08:49:17;;;;;;;12.83;7.63;;;28.40;63.60;;;;;;4979033;28;20488;-69
2023/10/03 08:51:46;;;;;;;8.13;6.53;;;27.80;65.30;;;;;;4976724;28;20466;-69
2023/10/03 08:54:13;;;;;;;12.30;6.80;;;27.20;66.90;;;;;;4977524;28;20463;-70
2023/10/03 08:56:41;;;;;;;8.40;7.50;;;27.30;68.20;;;;;;4956830;28;20456;-69
2023/10/03 08:59:09;;;;;;;7.00;6.40;;;27.90;66.60;;;;;;4968121;28;20483;-69
2023/10/03 09:01:43;;;;;;;12.30;7.17;;;28.70;65.50;;;;;;4975315;28;20467;-70
2023/10/03 09:04:15;;;;;;;7.43;6.73;;;29.30;64.00;;;;;;4962449;28;20571;-70
2023/10/03 09:06:42;;;;;;;6.73;6.13;;;29.10;62.60;;;;;;4971392;28;20569;-68
2023/10/03 09:09:08;;;;;;;7.97;7.03;;;28.50;64.40;;;;;;4970065;28;20945;-70
2023/10/03 09:11:37;;;;;;;7.80;6.00;;;28.00;65.80;;;;;;4958087;28;20432;-68
2023/10/03 09:14:07;;;;;;;8.53;7.60;;;28.50;65.90;;;;;;4969087;28;20459;-69
2023/10/03 09:16:38;;;;;;;9.90;8.73;;;28.60;65.00;;;;;;4977185;28;20667;-69
2023/10/03 09:19:05;;;;;;;8.30;6.37;;;28.80;64.70;;;;;;4979068;28;20443;-72
2023/10/03 09:21:31;;;;;;;12.50;8.00;;;29.20;63.70;;;;;;4976548;28;20440;-69
2023/10/03 09:24:14;;;;;;;7.80;7.10;;;29.10;63.50;;;;;;4960411;28;20487;-65
2023/10/03 09:26:46;;;;;;;8.40;6.63;;;28.60;64.20;;;;;;4961208;28;20606;-70
2023/10/03 09:29:18;;;;;;;8.27;7.37;;;28.20;66.30;;;;;;4960863;28;20508;-70
2023/10/03 09:31:48;;;;;;;8.27;7.47;;;28.40;66.20;;;;;;4974038;28;20444;-69
2023/10/03 09:34:15;;;;;;;6.97;6.27;;;28.60;66.50;;;;;;4971207;28;20888;-70
2023/10/03 09:36:41;;;;;;;7.50;6.77;;;28.60;65.90;;;;;;4974884;28;20455;-69
2023/10/03 09:39:21;;;;;;;7.10;6.40;;;28.50;66.30;;;;;;4974910;28;20427;-70
2023/10/03 09:41:57;;;;;;;7.77;6.43;;;28.50;66.90;;;;;;4976189;28;20258;-71
2023/10/03 09:44:32;;;;;;;8.77;6.57;;;28.60;67.10;;;;;;4982356;28;20565;-69
2023/10/03 09:47:04;;;;;;;11.33;6.80;;;29.30;65.20;;;;;;4979412;28;20805;-69
2023/10/03 09:49:38;;;;;;;7.30;6.63;;;29.40;65.30;;;;;;4970058;28;20440;-69
2023/10/03 09:52:09;;;;;;;10.43;7.53;;;29.60;63.90;;;;;;4975636;28;20474;-70
2023/10/03 09:54:36;;;;;;;8.50;6.93;;;31.00;61.90;;;;;;4976212;28;20458;-70
2023/10/03 09:57:15;;;;;;;7.57;6.20;;;33.40;57.80;;;;;;4984095;28;20490;-70
2023/10/03 09:59:42;;;;;;;7.07;6.40;;;34.70;53.10;;;;;;4979252;28;20434;-71
2023/10/03 10:02:12;;;;;;;8.40;6.63;;;34.50;51.20;;;;;;4970056;28;20443;-70
2023/10/03 10:04:39;;;;;;;6.80;6.10;;;34.60;51.00;;;;;;4985237;28;20568;-70
2023/10/03 10:07:16;;;;;;;7.30;6.60;;;33.90;50.40;;;;;;4965250;28;20435;-70
2023/10/03 10:10:12;;;;;;;7.47;6.53;;;32.60;51.10;;;;;;4955121;29;20419;-70
2023/10/03 10:12:59;;;;;;;7.40;6.70;;;30.90;53.40;;;;;;4954797;29;20435;-69
2023/10/03 10:15:30;;;;;;;8.53;6.97;;;30.00;55.40;;;;;;4981548;28;20870;-69
2023/10/03 10:17:56;;;;;;;7.33;6.73;;;29.20;57.10;;;;;;4976695;28;20451;-70
2023/10/03 10:20:27;;;;;;;6.83;6.03;;;28.70;57.90;;;;;;4972397;28;20806;-69
2023/10/03 10:22:59;;;;;;;7.27;6.57;;;28.70;59.20;;;;;;4975905;28;20165;-69
2023/10/03 10:25:30;;;;;;;6.37;5.77;;;28.80;59.00;;;;;;4958757;28;20459;-70
2023/10/03 10:28:06;;;;;;;7.20;6.60;;;28.80;58.40;;;;;;4985376;28;20426;-69
2023/10/03 10:30:37;;;;;;;7.37;6.67;;;28.70;59.00;;;;;;4992134;28;20469;-69
2023/10/03 10:33:15;;;;;;;6.43;5.83;;;28.50;59.60;;;;;;4993305;28;20458;-69
2023/10/03 10:36:10;;;;;;;7.63;6.97;;;28.60;61.10;;;;;;4993469;28;20505;-69
2023/10/03 10:38:35;;;;;;;7.00;6.30;;;28.40;61.00;;;;;;4980969;28;20534;-69
2023/10/03 10:41:22;;;;;;;7.33;6.63;;;28.30;62.00;;;;;;4975028;28;20447;-69
2023/10/03 10:44:09;;;;;;;8.20;7.17;;;28.50;62.40;;;;;;4980181;28;20582;-69
2023/10/03 10:46:39;;;;;;;7.07;5.97;;;28.50;63.20;;;;;;4994008;28;20506;-69
2023/10/03 10:49:07;;;;;;;8.37;6.33;;;28.70;62.70;;;;;;4981408;28;20465;-69
2023/10/03 10:51:36;;;;;;;8.57;6.83;;;28.90;61.90;;;;;;4991898;28;20423;-69
2023/10/03 10:54:02;;;;;;;6.90;6.37;;;29.90;59.40;;;;;;4994808;28;21047;-70
2023/10/03 10:56:28;;;;;;;8.10;7.43;;;30.80;58.10;;;;;;4991649;28;20794;-69
2023/10/03 10:59:06;;;;;;;7.37;6.77;;;31.60;56.80;;;;;;4954988;29;20424;-70
2023/10/03 11:01:39;;;;;;;8.13;7.50;;;32.50;55.00;;;;;;4975846;28;20222;-70
2023/10/03 11:04:06;;;;;;;8.40;6.33;;;32.90;54.20;;;;;;4977746;28;20455;-70
2023/10/03 11:06:31;;;;;;;6.97;6.40;;;34.30;52.30;;;;;;4989195;28;20437;-69
2023/10/03 11:08:57;;;;;;;8.17;7.13;;;34.40;50.40;;;;;;4992756;28;20415;-69
2023/10/03 11:11:34;;;;;;;9.97;8.97;;;33.40;51.10;;;;;;4971654;28;20219;-71
2023/10/03 11:16:27;;;;;;;7.93;7.20;;;32.70;52.30;;;;;;5033975;23;20481;-67
2023/10/03 11:18:55;;;;;;;8.03;7.33;;;32.50;52.60;;;;;;5016100;28;20795;-68
2023/10/03 11:21:22;;;;;;;7.93;7.13;;;32.20;52.70;;;;;;5016241;28;20193;-69
2023/10/03 11:24:13;;;;;;;7.70;6.93;;;31.40;53.90;;;;;;5014906;28;20480;-70
2023/10/03 11:26:53;;;;;;;7.13;6.43;;;30.30;54.90;;;;;;4988291;28;20419;-69
2023/10/03 11:29:58;;;;;;;9.80;7.50;;;30.00;55.60;;;;;;4996517;28;20414;-69
2023/10/03 11:32:32;;;;;;;12.53;7.60;;;29.40;56.50;;;;;;4955083;29;20428;-69
2023/10/03 11:35:12;;;;;;;8.20;7.27;;;29.30;57.20;;;;;;4955010;29;20805;-70
2023/10/03 11:37:45;;;;;;;11.33;7.20;;;29.40;57.80;;;;;;4978952;28;20573;-69
2023/10/03 11:40:20;;;;;;;9.70;7.80;;;29.50;57.10;;;;;;4996204;28;20931;-69
2023/10/03 11:42:47;;;;;;;8.70;7.73;;;29.60;56.80;;;;;;4995906;28;20790;-70
2023/10/03 11:45:21;;;;;;;9.80;7.20;;;30.20;56.30;;;;;;4996126;28;20442;-69
2023/10/03 11:48:00;;;;;;;6.63;5.80;;;30.50;55.50;;;;;;4995056;28;20804;-69
2023/10/03 11:50:27;;;;;;;6.90;6.40;;;30.50;55.10;;;;;;4995902;28;20435;-70
2023/10/03 11:52:56;;;;;;;9.03;7.07;;;30.90;54.90;;;;;;4995658;28;20761;-69
2023/10/03 11:55:22;;;;;;;15.73;7.30;;;32.10;53.30;;;;;;4996015;28;20859;-69
2023/10/03 11:57:48;;;;;;;9.77;7.50;;;32.60;51.70;;;;;;4995834;28;20479;-69
2023/10/03 12:00:17;;;;;;;9.47;8.17;;;32.40;51.90;;;;;;4994756;28;20443;-69
2023/10/03 12:02:45;;;;;;;7.20;6.60;;;32.30;52.20;;;;;;4995707;28;20655;-69
2023/10/03 12:05:14;;;;;;;9.13;7.90;;;32.50;52.00;;;;;;4995550;28;20450;-68
2023/10/03 12:07:45;;;;;;;7.10;6.47;;;33.20;51.30;;;;;;4995760;28;20458;-69
2023/10/03 12:10:14;;;;;;;8.40;7.80;;;33.40;50.60;;;;;;4994823;28;20885;-69
2023/10/03 12:12:40;;;;;;;8.27;7.23;;;32.60;51.40;;;;;;4987279;28;20477;-70
2023/10/03 12:15:13;;;;;;;10.60;8.30;;;32.80;51.10;;;;;;4995480;28;20458;-69
2023/10/03 12:17:39;;;;;;;7.83;7.10;;;33.10;50.70;;;;;;4995554;28;20207;-69
2023/10/03 12:20:11;;;;;;;7.37;6.67;;;33.00;50.60;;;;;;4995512;28;20450;-66
2023/10/03 12:22:41;;;;;;;9.83;7.80;;;32.00;51.40;;;;;;4993237;28;20446;-69
2023/10/03 12:25:17;;;;;;;8.07;7.27;;;31.20;52.70;;;;;;4993074;28;20867;-70
2023/10/03 12:27:44;;;;;;;9.10;7.10;;;30.80;53.50;;;;;;4987757;28;20426;-69
2023/10/03 12:30:15;;;;;;;7.93;7.20;;;31.20;53.70;;;;;;4995262;28;20484;-70
2023/10/03 12:32:47;;;;;;;7.90;7.10;;;31.00;53.60;;;;;;4995048;28;20423;-69
2023/10/03 12:35:14;;;;;;;9.83;8.00;;;30.30;54.60;;;;;;4994165;28;20810;-67
2023/10/03 12:37:44;;;;;;;8.10;7.40;;;29.60;55.80;;;;;;4987168;28;20554;-69
2023/10/03 12:40:13;;;;;;;7.90;7.17;;;28.80;57.10;;;;;;4994973;28;20477;-70
2023/10/03 12:42:43;;;;;;;8.50;7.70;;;28.50;58.20;;;;;;4994786;28;20415;-69
2023/10/03 12:45:15;;;;;;;8.13;7.33;;;28.10;59.20;;;;;;4995108;28;20451;-69
2023/10/03 12:47:46;;;;;;;9.33;8.43;;;28.20;59.60;;;;;;4993966;28;20442;-69
2023/10/03 12:50:13;;;;;;;9.67;8.13;;;28.00;59.70;;;;;;4994819;28;20454;-69